createdAt,value
2023-02-23T00:01:28.598Z,104.03
2023-02-23T00:03:58.225Z,95.20
2023-02-23T00:06:26.999Z,94.28
2023-02-23T00:08:54.918Z,95.75
2023-02-23T00:11:22.579Z,96.07
2023-02-23T00:13:50.946Z,94.55
2023-02-23T00:16:23.955Z,88.25
2023-02-23T00:19:00.486Z,90.82
2023-02-23T00:21:30.344Z,96.47
2023-02-23T00:23:59.925Z,92.35
2023-02-23T00:26:34.719Z,85.50
2023-02-23T00:29:07.937Z,88.78
2023-02-23T00:31:35.901Z,83.88
2023-02-23T00:34:04.204Z,86.50
2023-02-23T00:36:33.624Z,84.75
2023-02-23T00:39:06.446Z,84.68
2023-02-23T00:41:33.269Z,86.43
2023-02-23T00:44:01.181Z,74.25
2023-02-23T00:46:30.354Z,85.10
2023-02-23T00:48:59.151Z,80.10
2023-02-23T00:51:30.987Z,82.63
2023-02-23T00:54:00.028Z,77.03
2023-02-23T00:56:27.762Z,74.82
2023-02-23T00:58:55.436Z,68.90
2023-02-23T01:01:23.042Z,75.30
2023-02-23T01:03:50.608Z,68.10
2023-02-23T01:06:17.825Z,70.03
2023-02-23T01:08:50.271Z,72.35
2023-02-23T01:11:22.752Z,78.20
2023-02-23T01:13:53.370Z,71.15
2023-02-23T01:16:22.805Z,69.97
2023-02-23T01:18:50.029Z,73.82
2023-02-23T01:21:20.288Z,78.65
2023-02-23T01:23:47.836Z,72.80
2023-02-23T01:26:24.932Z,76.25
2023-02-23T01:28:54.405Z,81.55
2023-02-23T01:31:23.644Z,75.15
2023-02-23T01:33:58.158Z,78.47
2023-02-23T01:36:25.872Z,79.40
2023-02-23T01:38:56.953Z,82.93
2023-02-23T01:41:25.167Z,86.70
2023-02-23T01:43:56.115Z,76.35
2023-02-23T01:46:23.119Z,78.03
2023-02-23T01:48:51.733Z,75.25
2023-02-23T01:51:21.068Z,83.60
2023-02-23T01:54:11.154Z,83.18
2023-02-23T01:56:43.567Z,79.90
2023-02-23T01:59:13.612Z,81.28
2023-02-23T02:01:42.147Z,82.72
2023-02-23T02:04:16.521Z,83.05
2023-02-23T02:06:45.778Z,77.45
2023-02-23T02:09:19.667Z,76.70
2023-02-23T02:11:54.093Z,85.63
2023-02-23T02:14:31.765Z,79.03
2023-02-23T02:17:16.354Z,75.18
2023-02-23T02:19:55.393Z,76.05
2023-02-23T02:22:34.462Z,73.47
2023-02-23T02:25:32.219Z,74.72
2023-02-23T02:28:22.295Z,77.97
2023-02-23T02:31:10.566Z,79.55
2023-02-23T02:34:02.108Z,82.55
2023-02-23T02:36:50.101Z,83.95
2023-02-23T02:39:40.220Z,81.43
2023-02-23T02:42:22.661Z,83.55
2023-02-23T02:45:00.245Z,80.28
2023-02-23T02:47:29.089Z,86.95
2023-02-23T02:49:59.386Z,77.03
2023-02-23T02:52:44.976Z,84.13
2023-02-23T02:55:37.488Z,75.28
2023-02-23T02:58:08.105Z,69.38
2023-02-23T03:01:03.555Z,68.45
2023-02-23T03:03:52.484Z,74.50
2023-02-23T03:06:40.480Z,76.82
2023-02-23T03:09:44.702Z,80.78
2023-02-23T03:12:50.547Z,78.40
2023-02-23T03:16:01.971Z,75.72
2023-02-23T03:19:07.981Z,71.82
2023-02-23T03:22:15.632Z,78.60
2023-02-23T03:25:32.229Z,75.68
2023-02-23T03:28:31.884Z,72.03
2023-02-23T03:31:25.392Z,71.65
2023-02-23T03:34:37.018Z,69.20
2023-02-23T03:37:34.412Z,70.47
2023-02-23T03:40:38.025Z,68.68
2023-02-23T03:43:30.875Z,64.20
2023-02-23T03:46:17.495Z,66.97
2023-02-23T03:49:04.821Z,70.30
2023-02-23T03:51:54.950Z,61.47
2023-02-23T03:54:54.375Z,76.75
2023-02-23T03:57:43.993Z,63.95
2023-02-23T04:00:35.997Z,69.82
2023-02-23T04:03:23.760Z,66.60
2023-02-23T04:06:13.068Z,68.20
2023-02-23T04:08:59.462Z,69.30
2023-02-23T04:11:58.171Z,71.07
2023-02-23T04:14:35.322Z,72.05
2023-02-23T04:17:04.271Z,72.95
2023-02-23T04:19:31.083Z,63.15
2023-02-23T04:21:57.988Z,73.22
2023-02-23T04:24:24.857Z,70.25
2023-02-23T04:26:51.681Z,75.85
2023-02-23T04:29:18.524Z,71.28
2023-02-23T04:31:46.187Z,79.38
2023-02-23T04:34:14.386Z,80.35
2023-02-23T04:36:41.276Z,77.63
2023-02-23T04:39:08.276Z,76.95
2023-02-23T04:41:35.310Z,73.40
2023-02-23T04:44:02.303Z,81.13
2023-02-23T04:46:32.398Z,76.15
2023-02-23T04:48:59.229Z,73.80
2023-02-23T04:51:30.861Z,71.93
2023-02-23T04:53:58.286Z,72.00
2023-02-23T04:56:25.911Z,75.15
2023-02-23T04:58:53.572Z,68.65
2023-02-23T05:01:22.526Z,65.07
2023-02-23T05:03:50.499Z,66.63
2023-02-23T05:06:18.550Z,64.40
2023-02-23T05:08:45.770Z,70.57
2023-02-23T05:11:13.229Z,63.28
2023-02-23T05:13:40.260Z,65.28
2023-02-23T05:16:07.876Z,70.07
2023-02-23T05:18:35.114Z,63.03
2023-02-23T05:21:05.435Z,68.13
2023-02-23T05:23:32.738Z,77.82
2023-02-23T05:26:07.137Z,76.85
2023-02-23T05:28:35.919Z,83.95
2023-02-23T05:31:04.610Z,85.38
2023-02-23T05:33:33.561Z,86.63
2023-02-23T05:36:01.059Z,91.03
2023-02-23T05:38:28.012Z,87.80
2023-02-23T05:40:55.015Z,80.95
2023-02-23T05:43:21.884Z,74.63
2023-02-23T05:45:48.804Z,71.93
2023-02-23T05:48:15.749Z,66.60
2023-02-23T05:50:42.807Z,76.75
2023-02-23T05:53:10.444Z,71.57
2023-02-23T05:55:37.686Z,65.28
2023-02-23T05:58:04.573Z,64.95
2023-02-23T06:00:31.437Z,63.40
2023-02-23T06:02:58.401Z,64.25
2023-02-23T06:05:25.287Z,66.40
2023-02-23T06:07:54.336Z,63.47
2023-02-23T06:10:21.148Z,69.45
2023-02-23T06:12:48.091Z,64.90
2023-02-23T06:15:15.184Z,71.55
2023-02-23T06:17:42.404Z,66.75
2023-02-23T06:20:12.864Z,71.10
2023-02-23T06:22:39.778Z,67.05
2023-02-23T06:25:12.679Z,64.50
2023-02-23T06:27:40.419Z,62.58
2023-02-23T06:30:08.092Z,66.55
2023-02-23T06:32:34.937Z,71.60
2023-02-23T06:35:02.319Z,68.97
2023-02-23T06:37:29.291Z,65.40
2023-02-23T06:39:56.155Z,65.60
2023-02-23T06:42:23.012Z,67.82
2023-02-23T06:44:50.037Z,69.18
2023-02-23T06:47:17.586Z,69.15
2023-02-23T06:49:44.705Z,72.05
2023-02-23T06:52:13.694Z,73.03
2023-02-23T06:54:41.926Z,64.28
2023-02-23T06:57:09.834Z,75.57
2023-02-23T06:59:36.959Z,69.75
2023-02-23T07:02:05.851Z,75.60
2023-02-23T07:04:33.134Z,76.97
2023-02-23T07:07:00.057Z,67.30
2023-02-23T07:09:27.720Z,69.78
2023-02-23T07:11:55.854Z,65.43
2023-02-23T07:14:26.849Z,69.43
2023-02-23T07:16:54.767Z,60.97
2023-02-23T07:19:21.934Z,63.97
2023-02-23T07:21:48.791Z,70.88
2023-02-23T07:24:15.636Z,64.57
2023-02-23T07:26:46.835Z,67.72
2023-02-23T07:29:14.038Z,72.13
2023-02-23T07:31:41.290Z,68.05
2023-02-23T07:34:09.717Z,70.30
2023-02-23T07:36:37.164Z,68.60
2023-02-23T07:39:05.291Z,70.90
2023-02-23T07:41:32.729Z,72.25
2023-02-23T07:44:00.335Z,75.35
2023-02-23T07:46:27.526Z,74.10
2023-02-23T07:48:54.476Z,69.00
2023-02-23T07:51:21.736Z,66.30
2023-02-23T07:53:49.531Z,73.32
2023-02-23T07:56:16.567Z,79.40
2023-02-23T07:58:44.774Z,71.57
2023-02-23T08:01:13.212Z,83.43
2023-02-23T08:03:40.159Z,84.35
2023-02-23T08:06:07.666Z,83.28
2023-02-23T08:08:35.529Z,86.60
2023-02-23T08:11:04.066Z,78.60
2023-02-23T08:13:31.925Z,78.55
2023-02-23T08:15:59.364Z,79.65
2023-02-23T08:18:26.431Z,77.25
2023-02-23T08:20:59.438Z,76.22
2023-02-23T08:23:26.756Z,81.18
2023-02-23T08:25:54.748Z,78.35
2023-02-23T08:28:22.215Z,78.28
2023-02-23T08:30:49.144Z,79.00
2023-02-23T08:33:16.009Z,82.05
2023-02-23T08:35:42.871Z,84.85
2023-02-23T08:38:09.670Z,84.85
2023-02-23T08:40:36.630Z,82.00
2023-02-23T08:43:03.723Z,81.57
2023-02-23T08:45:30.657Z,80.78
2023-02-23T08:47:57.651Z,82.95
2023-02-23T08:50:27.216Z,84.47
2023-02-23T08:52:54.505Z,88.32
2023-02-23T08:55:21.861Z,93.00
2023-02-23T08:57:49.943Z,87.90
2023-02-23T09:00:17.673Z,86.53
2023-02-23T09:02:49.696Z,108.07
2023-02-23T09:05:17.507Z,101.50
2023-02-23T09:07:45.375Z,98.28
2023-02-23T09:10:19.852Z,89.93
2023-02-23T09:12:47.036Z,82.90
2023-02-23T09:15:14.017Z,88.90
2023-02-23T09:17:45.012Z,78.95
2023-02-23T09:20:13.685Z,86.57
2023-02-23T09:22:45.546Z,81.32
2023-02-23T09:25:13.108Z,84.78
2023-02-23T09:27:39.950Z,81.72
2023-02-23T09:30:07.418Z,76.93
2023-02-23T09:32:34.585Z,76.05
2023-02-23T09:35:01.701Z,79.45
2023-02-23T09:37:28.854Z,71.75
2023-02-23T09:39:57.927Z,74.50
2023-02-23T09:42:41.290Z,71.20
2023-02-23T09:45:27.234Z,70.50
2023-02-23T09:48:17.348Z,66.97
2023-02-23T09:50:49.346Z,69.55
2023-02-23T09:53:33.953Z,67.18
2023-02-23T09:56:03.359Z,66.32
2023-02-23T09:58:33.962Z,72.00
2023-02-23T10:01:07.052Z,71.22
2023-02-23T10:03:38.832Z,69.70
2023-02-23T10:06:11.331Z,68.97
2023-02-23T10:08:56.414Z,64.22
2023-02-23T10:11:25.782Z,72.25
2023-02-23T10:14:02.053Z,68.85
2023-02-23T10:16:53.327Z,72.85
2023-02-23T10:19:34.720Z,62.53
2023-02-23T10:22:07.469Z,61.90
2023-02-23T10:24:39.202Z,61.83
2023-02-23T10:27:25.327Z,63.58
2023-02-23T10:29:54.918Z,61.47
2023-02-23T10:32:49.429Z,69.43
2023-02-23T10:35:19.524Z,65.60
2023-02-23T10:37:47.496Z,62.38
2023-02-23T10:40:25.298Z,63.88
2023-02-23T10:42:52.729Z,63.10
2023-02-23T10:45:25.790Z,65.68
2023-02-23T10:48:00.939Z,64.57
2023-02-23T10:50:29.349Z,61.95
2023-02-23T10:53:04.690Z,62.00
2023-02-23T10:55:32.593Z,75.30
2023-02-23T10:58:10.129Z,63.78
2023-02-23T11:00:41.280Z,50.50
2023-02-23T11:03:22.731Z,58.75
2023-02-23T11:05:52.783Z,54.15
2023-02-23T11:08:21.377Z,52.17
2023-02-23T11:11:12.594Z,53.05
2023-02-23T11:13:45.548Z,104.18
2023-02-23T11:16:30.652Z,58.95
2023-02-23T11:18:59.368Z,57.03
2023-02-23T11:21:33.682Z,52.92
2023-02-23T11:24:27.884Z,64.10
2023-02-23T11:27:00.455Z,58.95
2023-02-23T11:29:35.422Z,60.85
2023-02-23T11:32:23.622Z,64.03
2023-02-23T11:35:12.484Z,62.50
2023-02-23T11:37:39.829Z,58.75
2023-02-23T11:40:22.135Z,60.28
2023-02-23T11:43:06.395Z,66.82
2023-02-23T11:45:49.068Z,65.18
2023-02-23T11:48:51.437Z,74.38
2023-02-23T11:51:25.781Z,61.50
2023-02-23T11:53:53.095Z,66.65
2023-02-23T11:56:23.871Z,77.80
2023-02-23T11:58:53.896Z,62.78
2023-02-23T12:01:46.822Z,68.70
2023-02-23T12:04:30.367Z,103.60
2023-02-23T12:07:38.854Z,60.22
2023-02-23T12:10:26.977Z,63.70
2023-02-23T12:13:25.356Z,66.22
2023-02-23T12:16:12.221Z,83.45
2023-02-23T12:18:41.952Z,62.83
2023-02-23T12:21:16.269Z,68.70
2023-02-23T12:23:48.682Z,63.05
2023-02-23T12:26:20.337Z,62.47
2023-02-23T12:28:54.772Z,69.40
2023-02-23T12:31:46.524Z,61.83
2023-02-23T12:34:19.266Z,59.83
2023-02-23T12:36:50.502Z,60.17
2023-02-23T12:39:35.829Z,57.60
2023-02-23T12:42:06.036Z,56.80
2023-02-23T12:44:58.808Z,57.22
2023-02-23T12:47:34.569Z,59.25
2023-02-23T12:50:24.287Z,58.45
2023-02-23T12:53:01.680Z,52.97
2023-02-23T12:55:41.950Z,57.78
2023-02-23T12:58:33.516Z,54.90
2023-02-23T13:01:09.504Z,58.80
2023-02-23T13:03:57.547Z,52.17
2023-02-23T13:06:30.551Z,55.95
2023-02-23T13:09:15.056Z,55.63
2023-02-23T13:11:59.899Z,52.85
2023-02-23T13:14:43.322Z,56.20
2023-02-23T13:17:36.073Z,54.05
2023-02-23T13:20:25.678Z,55.08
2023-02-23T13:22:57.745Z,54.25
2023-02-23T13:25:37.132Z,57.50
2023-02-23T13:28:06.344Z,54.88
2023-02-23T13:30:33.856Z,51.50
2023-02-23T13:33:06.367Z,56.45
2023-02-23T13:35:36.158Z,56.28
2023-02-23T13:38:32.491Z,55.53
2023-02-23T13:41:29.584Z,53.63
2023-02-23T13:44:09.393Z,56.40
2023-02-23T13:46:42.665Z,53.35
2023-02-23T13:49:38.282Z,53.78
2023-02-23T13:52:29.532Z,52.25
2023-02-23T13:55:04.006Z,48.25
2023-02-23T13:57:33.120Z,45.42
2023-02-23T14:00:00.865Z,47.08
2023-02-23T14:02:33.167Z,48.10
2023-02-23T14:05:15.727Z,46.55
2023-02-23T14:07:45.532Z,43.97
2023-02-23T14:10:21.704Z,44.67
2023-02-23T14:13:26.426Z,46.30
2023-02-23T14:16:14.837Z,44.70
2023-02-23T14:19:03.548Z,50.10
2023-02-23T14:21:31.809Z,44.80
2023-02-23T14:24:13.701Z,48.80
2023-02-23T14:26:43.701Z,45.78
2023-02-23T14:29:20.137Z,46.35
2023-02-23T14:31:58.896Z,41.00
2023-02-23T14:34:51.185Z,45.13
2023-02-23T14:37:37.205Z,49.58
2023-02-23T14:40:10.527Z,40.67
2023-02-23T14:42:39.405Z,41.65
2023-02-23T14:45:19.605Z,43.20
2023-02-23T14:47:48.687Z,36.95
2023-02-23T14:50:27.574Z,44.30
2023-02-23T14:52:56.944Z,50.53
2023-02-23T14:55:29.704Z,39.00
2023-02-23T14:57:58.189Z,40.53
2023-02-23T15:00:28.594Z,45.55
2023-02-23T15:03:12.847Z,39.50
2023-02-23T15:05:50.176Z,44.08
2023-02-23T15:08:23.245Z,39.05
2023-02-23T15:11:12.380Z,46.75
2023-02-23T15:13:50.951Z,41.53
2023-02-23T15:16:17.860Z,50.72
2023-02-23T15:18:45.166Z,36.35
2023-02-23T15:21:18.876Z,36.45
2023-02-23T15:23:49.280Z,28.08
2023-02-23T15:26:27.503Z,41.35
2023-02-23T15:28:54.283Z,31.83
2023-02-23T15:31:21.710Z,32.67
2023-02-23T15:33:51.069Z,28.27
2023-02-23T15:36:30.142Z,28.45
2023-02-23T15:38:59.866Z,29.85
2023-02-23T15:41:36.832Z,28.80
2023-02-23T15:44:13.054Z,32.15
2023-02-23T15:46:41.932Z,26.55
2023-02-23T15:49:14.369Z,26.40
2023-02-23T15:51:51.374Z,23.77
2023-02-23T15:54:27.092Z,20.83
2023-02-23T15:57:20.008Z,25.58
2023-02-23T15:59:48.987Z,33.03
2023-02-23T16:02:20.728Z,24.67
2023-02-23T16:04:54.060Z,24.98
2023-02-23T16:07:21.141Z,22.25
2023-02-23T16:09:52.576Z,21.02
2023-02-23T16:12:21.804Z,20.40
2023-02-23T16:15:14.954Z,20.92
2023-02-23T16:17:47.610Z,21.67
2023-02-23T16:20:15.029Z,20.58
2023-02-23T16:22:46.134Z,18.40
2023-02-23T16:25:16.281Z,21.45
2023-02-23T16:27:45.580Z,33.63
2023-02-23T16:30:23.516Z,32.20
2023-02-23T16:33:03.941Z,30.67
2023-02-23T16:35:41.903Z,29.52
2023-02-23T16:38:26.297Z,34.58
2023-02-23T16:40:53.734Z,24.30
2023-02-23T16:43:21.039Z,24.75
2023-02-23T16:45:48.149Z,14.65
2023-02-23T16:48:16.650Z,20.75
2023-02-23T16:50:45.661Z,24.02
2023-02-23T16:53:13.747Z,25.67
2023-02-23T16:56:12.547Z,22.33
2023-02-23T16:58:46.038Z,18.65
2023-02-23T17:01:18.680Z,21.85
2023-02-23T17:04:05.856Z,17.67
2023-02-23T17:06:32.802Z,17.08
2023-02-23T17:08:59.753Z,21.05
2023-02-23T17:11:27.193Z,17.08
2023-02-23T17:13:54.663Z,17.60
2023-02-23T17:16:22.022Z,18.98
2023-02-23T17:18:49.425Z,19.80
2023-02-23T17:21:23.098Z,19.65
2023-02-23T17:23:51.391Z,25.05
2023-02-23T17:26:21.648Z,18.42
2023-02-23T17:28:48.859Z,21.20
2023-02-23T17:31:18.077Z,26.25
2023-02-23T17:33:46.265Z,22.52
2023-02-23T17:36:16.783Z,27.95
2023-02-23T17:38:46.852Z,28.00
2023-02-23T17:41:17.537Z,22.15
2023-02-23T17:43:44.689Z,31.83
2023-02-23T17:46:12.909Z,30.52
2023-02-23T17:48:40.986Z,27.13
2023-02-23T17:51:10.214Z,25.25
2023-02-23T17:53:38.113Z,27.45
2023-02-23T17:56:05.590Z,22.88
2023-02-23T17:58:32.775Z,24.67
2023-02-23T18:01:02.474Z,27.17
2023-02-23T18:03:32.448Z,21.67
2023-02-23T18:06:08.531Z,23.58
2023-02-23T18:08:36.498Z,22.38
2023-02-23T18:11:03.851Z,19.55
2023-02-23T18:13:33.371Z,22.42
2023-02-23T18:16:03.067Z,20.40
2023-02-23T18:18:30.363Z,43.55
2023-02-23T18:20:59.734Z,21.42
2023-02-23T18:23:32.835Z,17.73
2023-02-23T18:26:08.823Z,16.23
2023-02-23T18:28:41.243Z,18.90
2023-02-23T18:31:08.351Z,17.55
2023-02-23T18:33:38.140Z,12.38
2023-02-23T18:36:18.105Z,15.45
2023-02-23T18:38:44.964Z,23.17
2023-02-23T18:41:11.876Z,16.33
2023-02-23T18:43:38.984Z,19.38
2023-02-23T18:46:08.046Z,25.40
2023-02-23T18:48:35.620Z,26.80
2023-02-23T18:51:05.778Z,20.00
2023-02-23T18:53:37.213Z,24.50
2023-02-23T18:56:27.941Z,20.45
2023-02-23T18:58:57.608Z,19.23
2023-02-23T19:01:27.831Z,23.35
2023-02-23T19:03:57.629Z,33.67
2023-02-23T19:06:25.437Z,26.73
2023-02-23T19:08:55.396Z,24.17
2023-02-23T19:11:27.395Z,19.30
2023-02-23T19:14:00.794Z,18.83
2023-02-23T19:16:31.173Z,16.90
2023-02-23T19:18:59.837Z,21.65
2023-02-23T19:21:26.691Z,20.25
2023-02-23T19:23:57.848Z,24.70
2023-02-23T19:26:25.652Z,21.15
2023-02-23T19:28:52.950Z,20.80
2023-02-23T19:31:22.439Z,17.17
2023-02-23T19:33:50.681Z,19.92
2023-02-23T19:36:20.614Z,14.98
2023-02-23T19:38:48.892Z,15.10
2023-02-23T19:41:19.454Z,16.88
2023-02-23T19:43:46.899Z,13.77
2023-02-23T19:46:17.281Z,13.85
2023-02-23T19:48:48.981Z,17.25
2023-02-23T19:51:15.939Z,13.45
2023-02-23T19:53:42.930Z,19.10
2023-02-23T19:56:16.723Z,20.25
2023-02-23T19:58:46.560Z,23.33
2023-02-23T20:01:19.412Z,23.35
2023-02-23T20:03:55.314Z,18.90
2023-02-23T20:06:25.335Z,26.45
2023-02-23T20:08:55.063Z,30.30
2023-02-23T20:11:23.360Z,25.50
2023-02-23T20:13:53.731Z,30.45
2023-02-23T20:16:21.246Z,32.63
2023-02-23T20:18:48.328Z,36.20
2023-02-23T20:21:18.089Z,31.80
2023-02-23T20:23:46.741Z,40.80
2023-02-23T20:26:19.729Z,35.00
2023-02-23T20:28:46.876Z,37.70
2023-02-23T20:31:30.706Z,38.47
2023-02-23T20:34:01.048Z,42.67
2023-02-23T20:36:28.140Z,41.63
2023-02-23T20:38:55.346Z,40.92
2023-02-23T20:41:22.924Z,42.28
2023-02-23T20:43:51.684Z,40.95
2023-02-23T20:46:19.904Z,42.35
2023-02-23T20:48:49.152Z,30.48
2023-02-23T20:51:19.296Z,42.85
2023-02-23T20:53:48.309Z,37.05
2023-02-23T20:56:17.471Z,31.92
2023-02-23T20:58:45.152Z,38.90
2023-02-23T21:01:16.894Z,32.05
2023-02-23T21:03:44.530Z,31.55
2023-02-23T21:06:11.609Z,23.27
2023-02-23T21:08:39.918Z,22.58
2023-02-23T21:11:08.800Z,27.50
2023-02-23T21:13:36.165Z,28.73
2023-02-23T21:16:03.418Z,27.42
2023-02-23T21:18:31.448Z,26.70
2023-02-23T21:21:09.959Z,30.33
2023-02-23T21:23:39.074Z,28.30
2023-02-23T21:26:16.136Z,24.33
2023-02-23T21:28:44.918Z,23.67
2023-02-23T21:31:13.566Z,27.75
2023-02-23T21:33:42.823Z,21.65
2023-02-23T21:36:11.286Z,31.75
2023-02-23T21:38:39.276Z,31.13
2023-02-23T21:41:07.094Z,24.20
2023-02-23T21:43:36.052Z,31.25
2023-02-23T21:46:09.828Z,29.02
2023-02-23T21:48:37.069Z,28.05
2023-02-23T21:51:07.353Z,28.05
2023-02-23T21:53:34.802Z,32.33
2023-02-23T21:56:12.966Z,30.60
2023-02-23T21:58:43.484Z,27.00
2023-02-23T22:01:19.762Z,27.02
2023-02-23T22:03:47.697Z,22.63
2023-02-23T22:06:18.227Z,33.28
2023-02-23T22:08:50.062Z,25.02
2023-02-23T22:11:24.683Z,32.72
2023-02-23T22:14:00.395Z,23.00
2023-02-23T22:16:33.686Z,21.30
2023-02-23T22:19:04.540Z,20.70
2023-02-23T22:21:37.321Z,25.80
2023-02-23T22:24:05.607Z,27.40
2023-02-23T22:26:37.709Z,22.90
2023-02-23T22:29:06.043Z,36.83
2023-02-23T22:31:33.286Z,28.80
2023-02-23T22:34:00.361Z,25.48
2023-02-23T22:36:27.220Z,23.48
2023-02-23T22:38:58.275Z,23.40
2023-02-23T22:41:29.449Z,20.52
2023-02-23T22:43:57.742Z,25.85
2023-02-23T22:46:25.928Z,32.00
2023-02-23T22:48:53.065Z,22.63
2023-02-23T22:51:20.672Z,34.40
2023-02-23T22:53:47.750Z,24.33
2023-02-23T22:56:14.894Z,22.85
2023-02-23T22:58:42.489Z,12.35
2023-02-23T23:01:12.040Z,23.23
2023-02-23T23:03:47.146Z,16.83
2023-02-23T23:06:17.526Z,19.33
2023-02-23T23:08:45.923Z,24.90
2023-02-23T23:11:18.922Z,25.88
2023-02-23T23:13:48.672Z,24.02
2023-02-23T23:16:32.067Z,26.13
2023-02-23T23:19:12.773Z,23.02
2023-02-23T23:21:41.697Z,22.70
2023-02-23T23:24:09.963Z,19.63
2023-02-23T23:26:40.909Z,19.67
2023-02-23T23:29:11.742Z,21.25
2023-02-23T23:31:40.548Z,19.35
2023-02-23T23:34:10.411Z,18.80
2023-02-23T23:36:46.244Z,15.40
2023-02-23T23:39:16.472Z,18.08
2023-02-23T23:41:48.001Z,28.58
2023-02-23T23:44:21.505Z,17.00
2023-02-23T23:46:53.032Z,17.98
2023-02-23T23:49:22.427Z,21.05
2023-02-23T23:51:52.061Z,22.35
2023-02-23T23:54:23.057Z,19.20
2023-02-23T23:56:50.991Z,19.23
2023-02-23T23:59:20.587Z,19.70
